Time;durP1;ratioP1;P1;durP2;ratioP2;P2;SDS_P1;SDS_P2;PMS_P1;PMS_P2;Temp;Humidity;BMP_temperature;BMP_pressure;BME280_temperature;BME280_humidity;BME280_pressure;Samples;Min_cycle;Max_cycle;Signal;HPM_P1;HPM_P2
2022/08/18 06:33:39;;;;;;;10.82;6.60;;;;;;;26.21;49.65;100306.06;2084289;27;102736;-59
2022/08/18 06:35:19;;;;;;;8.27;5.55;;;;;;;26.27;49.25;100310.66;2074687;28;104225;-59
2022/08/18 06:36:27;;;;;;;7.70;5.65;;;;;;;26.20;48.46;100307.09;2070492;28;102716;-59
2022/08/18 06:38:37;;;;;;;8.32;6.03;;;;;;;26.10;48.92;100310.06;2070836;28;102766;-60
2022/08/18 06:39:20;;;;;;;10.00;7.35;;;;;;;25.99;48.93;100305.22;2069438;28;102977;-60
2022/08/18 06:40:21;;;;;;;9.52;7.07;;;;;;;25.89;49.23;100310.00;2070547;28;103087;-59
2022/08/18 06:41:31;;;;;;;10.32;8.02;;;;;;;25.80;49.17;100309.28;2071764;28;106171;-59
2022/08/18 06:42:31;;;;;;;10.07;7.90;;;;;;;25.73;49.49;100313.69;2080515;27;102624;-59
2022/08/18 06:43:34;;;;;;;10.55;7.38;;;;;;;25.67;49.86;100315.28;2082443;27;105519;-59
2022/08/18 06:44:37;;;;;;;11.05;7.90;;;;;;;25.61;49.72;100310.69;2074733;28;102842;-59
2022/08/18 06:45:37;;;;;;;12.60;7.72;;;;;;;25.57;49.82;100310.25;2077191;27;103961;-59
2022/08/18 06:47:14;;;;;;;14.35;8.82;;;;;;;25.56;50.03;100311.25;2071933;28;108510;-59
2022/08/18 06:48:34;;;;;;;11.75;9.13;;;;;;;25.52;50.02;100312.63;2077213;28;102828;-60
2022/08/18 06:49:39;;;;;;;11.47;8.83;;;;;;;25.48;50.14;100318.50;2073840;28;102894;-59
2022/08/18 06:50:45;;;;;;;11.90;8.40;;;;;;;25.43;50.08;100311.94;2068254;28;102912;-60
2022/08/18 06:51:45;;;;;;;11.73;8.20;;;;;;;25.41;50.03;100311.25;2068981;28;102595;-59
2022/08/18 06:52:52;;;;;;;10.68;9.10;;;;;;;25.41;50.59;100321.09;2076476;28;102777;-59
2022/08/18 06:53:55;;;;;;;10.55;8.35;;;;;;;25.40;50.89;100314.09;2072992;28;102885;-59
2022/08/18 06:54:58;;;;;;;11.65;9.57;;;;;;;25.39;50.59;100312.47;2073205;27;103078;-58
2022/08/18 06:55:58;;;;;;;9.98;8.00;;;;;;;25.39;50.59;100312.47;2072694;28;102815;-59
2022/08/18 06:56:58;;;;;;;11.18;9.15;;;;;;;25.40;50.81;100314.09;2055605;28;102806;-60
2022/08/18 06:58:20;;;;;;;12.50;9.63;;;;;;;25.39;50.45;100315.13;2066363;28;102935;-59
2022/08/18 06:59:29;;;;;;;10.73;8.85;;;;;;;25.40;50.61;100301.63;2073957;28;102805;-59
2022/08/18 07:00:31;;;;;;;11.48;8.77;;;;;;;25.40;50.76;100306.13;2073969;28;102576;-59
2022/08/18 07:01:31;;;;;;;12.55;8.60;;;;;;;25.40;50.41;100312.28;2064548;28;102840;-59
2022/08/18 07:02:44;;;;;;;10.32;8.43;;;;;;;25.42;50.42;100314.78;2071580;28;115639;-58
2022/08/18 07:03:53;;;;;;;14.98;9.75;;;;;;;25.43;50.74;100319.91;2080484;27;103214;-51
2022/08/18 07:05:00;;;;;;;12.85;9.32;;;;;;;25.44;50.82;100313.56;2080915;27;102801;-58
2022/08/18 07:06:04;;;;;;;12.93;8.77;;;;;;;25.45;50.50;100317.06;2024913;28;103446;-59
2022/08/18 07:07:19;;;;;;;11.45;8.38;;;;;;;25.48;50.47;100314.03;2001077;27;102942;-59
2022/08/18 07:08:30;;;;;;;10.30;7.75;;;;;;;25.48;50.52;100322.03;2056395;28;103124;-59
2022/08/18 07:09:32;;;;;;;12.20;8.73;;;;;;;25.47;50.39;100316.88;2057333;28;102683;-59
2022/08/18 07:10:35;;;;;;;10.88;8.50;;;;;;;25.48;50.17;100316.69;2059896;28;102918;-59
2022/08/18 07:11:41;;;;;;;13.15;9.52;;;;;;;25.47;50.85;100319.53;2056734;28;102795;-59
2022/08/18 07:12:42;;;;;;;13.15;8.63;;;;;;;25.48;50.57;100321.19;2064051;28;103099;-60
2022/08/18 07:13:44;;;;;;;15.38;8.65;;;;;;;25.48;50.60;100324.69;2058871;28;102997;-60
2022/08/18 07:14:47;;;;;;;13.20;8.13;;;;;;;25.48;50.56;100322.03;2052284;28;102931;-58
2022/08/18 07:15:48;;;;;;;12.02;8.63;;;;;;;25.48;50.80;100332.69;2052030;28;102968;-59
2022/08/18 07:16:49;;;;;;;10.98;8.55;;;;;;;25.49;50.66;100326.31;2055539;28;102655;-59
2022/08/18 07:17:49;;;;;;;17.02;11.43;;;;;;;25.49;50.73;100325.50;2059977;28;102878;-59
2022/08/18 07:18:50;;;;;;;16.38;12.90;;;;;;;25.48;50.93;100324.69;2055151;28;102605;-60
2022/08/18 07:19:55;;;;;;;16.77;13.55;;;;;;;25.50;50.76;100321.84;2055781;28;102643;-59
2022/08/18 07:21:00;;;;;;;14.38;12.00;;;;;;;25.49;50.73;100329.00;2055882;28;102640;-59
2022/08/18 07:22:09;;;;;;;16.13;11.95;;;;;;;25.50;50.67;100330.66;2055290;28;102714;-59
2022/08/18 07:23:09;;;;;;;16.20;12.90;;;;;;;25.48;50.78;100330.03;2056632;28;103020;-59
2022/08/18 07:24:11;;;;;;;14.48;11.95;;;;;;;25.48;50.79;100324.69;2049689;28;102832;-59
2022/08/18 07:25:11;;;;;;;14.68;11.77;;;;;;;25.49;50.51;100328.16;2051762;28;102914;-59
2022/08/18 07:26:16;;;;;;;15.40;11.57;;;;;;;25.50;50.74;100324.50;2054260;28;108348;-59
2022/08/18 07:27:21;;;;;;;13.00;11.57;;;;;;;25.52;50.82;100330.47;2055587;28;102977;-59
2022/08/18 07:28:31;;;;;;;13.20;10.80;;;;;;;25.53;50.51;100327.63;2050003;28;102692;-59
2022/08/18 07:29:57;;;;;;;15.02;10.63;;;;;;;25.54;50.34;100331.94;2052235;28;102992;-59
2022/08/18 07:31:18;;;;;;;12.40;10.35;;;;;;;25.54;50.70;100326.63;2052773;28;102717;-59
2022/08/18 07:32:18;;;;;;;;;;;;;;;25.61;50.54;100324.03;2056649;28;102945;-59
2022/08/18 07:33:21;;;;;;;13.48;11.23;;;;;;;25.54;50.34;100318.63;2056189;28;102800;-59
2022/08/18 07:34:32;;;;;;;14.63;11.35;;;;;;;25.53;50.93;100324.13;2063639;28;103132;-59
2022/08/18 07:35:38;;;;;;;13.50;11.85;;;;;;;25.50;50.37;100317.34;2063265;28;102625;-58
2022/08/18 07:36:46;;;;;;;14.68;11.95;;;;;;;25.51;50.75;100319.00;2059309;28;103284;-58
2022/08/18 07:37:55;;;;;;;13.75;11.20;;;;;;;25.52;50.68;100323.28;2062229;28;102973;-58
2022/08/18 07:38:59;;;;;;;14.35;10.80;;;;;;;25.52;50.75;100327.81;2061587;28;103014;-58
2022/08/18 07:40:05;;;;;;;12.18;10.55;;;;;;;25.52;50.82;100325.94;2060498;28;103055;-59
2022/08/18 07:41:25;;;;;;;13.73;10.60;;;;;;;25.54;50.65;100334.63;2051861;28;103363;-57
2022/08/18 07:42:51;;;;;;;13.23;10.02;;;;;;;25.55;50.57;100335.44;2054250;28;102943;-57
2022/08/18 07:44:02;;;;;;;11.88;9.73;;;;;;;25.55;50.63;100333.56;2047629;28;102973;-57
2022/08/18 07:45:11;;;;;;;11.07;9.88;;;;;;;25.55;50.45;100340.75;2050591;28;103840;-57
2022/08/18 07:46:30;;;;;;;11.45;9.27;;;;;;;25.57;50.46;100339.56;2039891;28;102695;-57
2022/08/18 07:47:36;;;;;;;12.18;9.98;;;;;;;25.56;50.66;100347.75;2042848;28;102995;-57
2022/08/18 07:48:37;;;;;;;12.07;9.93;;;;;;;25.55;50.40;100348.75;2047435;28;102988;-58
2022/08/18 07:49:37;;;;;;;12.23;9.90;;;;;;;25.55;50.43;100341.56;2057361;28;103202;-57
2022/08/18 07:50:54;;;;;;;13.15;10.98;;;;;;;25.55;50.60;100349.56;2058700;28;102544;-58
2022/08/18 07:52:13;;;;;;;12.23;9.82;;;;;;;25.58;50.68;100337.72;2056199;28;102940;-58
2022/08/18 07:53:37;;;;;;;14.07;11.37;;;;;;;25.61;50.98;100343.50;2049899;28;102687;-58
2022/08/18 07:54:56;;;;;;;14.15;12.05;;;;;;;25.56;50.86;100342.41;2050384;28;102671;-58
2022/08/18 07:56:00;;;;;;;13.70;11.27;;;;;;;25.57;50.43;100336.06;2050492;28;102685;-58
2022/08/18 07:57:04;;;;;;;19.05;12.68;;;;;;;25.57;50.59;100336.06;2051680;28;103224;-58
2022/08/18 07:58:53;;;;;;;14.32;11.68;;;;;;;25.60;50.71;100335.69;2049473;28;102980;-58
2022/08/18 07:59:59;;;;;;;12.73;11.38;;;;;;;25.59;50.49;100337.53;2049307;28;102893;-59
2022/08/18 08:01:11;;;;;;;14.10;11.23;;;;;;;25.58;51.06;100333.22;2047724;28;102886;-59
2022/08/18 08:02:37;;;;;;;15.55;12.52;;;;;;;25.60;51.00;100335.69;2050105;28;102977;-59
2022/08/18 08:04:06;;;;;;;13.45;11.30;;;;;;;25.58;50.93;100332.41;2050236;28;102697;-58
2022/08/18 08:05:07;;;;;;;11.90;10.40;;;;;;;25.59;50.83;100334.03;2053388;28;102770;-58
2022/08/18 08:06:24;;;;;;;13.82;10.52;;;;;;;25.58;50.96;100338.53;2050169;28;102913;-58
2022/08/18 08:07:44;;;;;;;12.82;10.60;;;;;;;25.61;50.98;100337.34;2057778;28;102902;-58
2022/08/18 08:08:55;;;;;;;12.38;10.43;;;;;;;25.60;50.81;100335.69;2055482;28;102723;-58
2022/08/18 08:10:02;;;;;;;12.40;10.75;;;;;;;25.59;51.07;100326.88;2050299;28;102589;-58
2022/08/18 08:11:26;;;;;;;13.95;11.68;;;;;;;25.58;50.78;100330.53;2050074;28;102917;-58
2022/08/18 08:12:39;;;;;;;12.43;11.10;;;;;;;25.59;51.13;100336.69;2046343;28;103795;-59
2022/08/18 08:13:46;;;;;;;14.65;11.43;;;;;;;25.60;50.71;100338.34;2050765;28;102588;-59
2022/08/18 08:14:50;;;;;;;12.45;10.23;;;;;;;25.60;51.07;100343.69;2046960;28;103202;-59
2022/08/18 08:16:00;;;;;;;13.20;11.80;;;;;;;25.60;50.93;100344.50;2048478;28;102668;-58
2022/08/18 08:17:22;;;;;;;14.18;11.13;;;;;;;25.61;51.04;100332.03;2047314;28;103204;-58
2022/08/18 08:18:57;;;;;;;11.82;10.32;;;;;;;25.62;50.69;100342.50;2049665;28;102527;-59
2022/08/18 08:20:12;;;;;;;17.25;11.55;;;;;;;25.61;51.25;100335.50;2051695;28;102563;-62
2022/08/18 08:21:18;;;;;;;15.00;11.55;;;;;;;25.61;51.30;100340.84;2050229;28;102804;-58
2022/08/18 08:22:31;;;;;;;14.27;12.32;;;;;;;25.62;50.97;100339.84;2048903;28;102923;-58
2022/08/18 08:23:46;;;;;;;14.98;11.60;;;;;;;25.61;50.65;100340.03;2048077;28;102740;-59
2022/08/18 08:25:11;;;;;;;13.70;10.68;;;;;;;25.63;50.75;100341.47;2057660;28;102899;-58
2022/08/18 08:26:50;;;;;;;12.68;10.13;;;;;;;25.67;51.75;100320.63;2054792;28;102875;-56
